sensor_id;sensor_type;location;lat;lon;timestamp;temperature;humidity
16966;DHT22;8599;47.852;12.070;2023-06-24T00:02:00;18.00;99.90
16966;DHT22;8599;47.852;12.070;2023-06-24T00:04:28;18.00;99.90
16966;DHT22;8599;47.852;12.070;2023-06-24T00:06:55;18.00;99.90
16966;DHT22;8599;47.852;12.070;2023-06-24T00:09:25;18.10;99.90
16966;DHT22;8599;47.852;12.070;2023-06-24T00:11:53;18.10;99.90
16966;DHT22;8599;47.852;12.070;2023-06-24T00:14:19;18.20;99.90
16966;DHT22;8599;47.852;12.070;2023-06-24T00:16:47;18.20;99.90
16966;DHT22;8599;47.852;12.070;2023-06-24T00:19:18;18.10;99.90
16966;DHT22;8599;47.852;12.070;2023-06-24T00:21:46;18.10;99.90
16966;DHT22;8599;47.852;12.070;2023-06-24T00:24:12;18.20;99.90
16966;DHT22;8599;47.852;12.070;2023-06-24T00:26:39;18.20;99.90
16966;DHT22;8599;47.852;12.070;2023-06-24T00:29:06;18.10;99.90
16966;DHT22;8599;47.852;12.070;2023-06-24T00:31:33;18.00;99.90
16966;DHT22;8599;47.852;12.070;2023-06-24T00:34:00;18.00;99.90
16966;DHT22;8599;47.852;12.070;2023-06-24T00:36:27;18.00;99.90
16966;DHT22;8599;47.852;12.070;2023-06-24T00:38:56;17.90;99.90
16966;DHT22;8599;47.852;12.070;2023-06-24T00:41:27;17.80;99.90
16966;DHT22;8599;47.852;12.070;2023-06-24T00:43:54;17.80;99.90
16966;DHT22;8599;47.852;12.070;2023-06-24T00:46:23;17.90;99.90
16966;DHT22;8599;47.852;12.070;2023-06-24T00:48:51;17.90;99.90
16966;DHT22;8599;47.852;12.070;2023-06-24T00:51:17;18.00;99.90
16966;DHT22;8599;47.852;12.070;2023-06-24T00:53:46;18.00;99.90
16966;DHT22;8599;47.852;12.070;2023-06-24T00:56:16;18.00;99.90
16966;DHT22;8599;47.852;12.070;2023-06-24T00:58:45;17.90;99.90
16966;DHT22;8599;47.852;12.070;2023-06-24T01:01:12;18.10;99.90
16966;DHT22;8599;47.852;12.070;2023-06-24T01:03:40;18.00;99.90
16966;DHT22;8599;47.852;12.070;2023-06-24T01:06:08;17.90;99.90
16966;DHT22;8599;47.852;12.070;2023-06-24T01:08:35;17.70;99.90
16966;DHT22;8599;47.852;12.070;2023-06-24T01:11:03;17.80;99.90
16966;DHT22;8599;47.852;12.070;2023-06-24T01:13:31;18.00;99.90
16966;DHT22;8599;47.852;12.070;2023-06-24T01:16:00;18.00;99.90
16966;DHT22;8599;47.852;12.070;2023-06-24T01:18:33;17.90;99.90
16966;DHT22;8599;47.852;12.070;2023-06-24T01:21:05;17.80;99.90
16966;DHT22;8599;47.852;12.070;2023-06-24T01:24:03;17.80;99.90
16966;DHT22;8599;47.852;12.070;2023-06-24T01:27:08;17.80;99.90
16966;DHT22;8599;47.852;12.070;2023-06-24T01:29:52;17.60;99.90
16966;DHT22;8599;47.852;12.070;2023-06-24T01:32:26;17.60;99.90
16966;DHT22;8599;47.852;12.070;2023-06-24T01:34:57;17.70;99.90
16966;DHT22;8599;47.852;12.070;2023-06-24T01:37:29;17.80;99.90
16966;DHT22;8599;47.852;12.070;2023-06-24T01:40:04;17.70;99.90
16966;DHT22;8599;47.852;12.070;2023-06-24T01:42:36;17.70;99.90
16966;DHT22;8599;47.852;12.070;2023-06-24T01:45:06;17.80;99.90
16966;DHT22;8599;47.852;12.070;2023-06-24T01:47:35;17.70;99.90
16966;DHT22;8599;47.852;12.070;2023-06-24T01:50:03;17.70;99.90
16966;DHT22;8599;47.852;12.070;2023-06-24T01:52:32;17.80;99.90
16966;DHT22;8599;47.852;12.070;2023-06-24T01:55:00;17.70;99.90
16966;DHT22;8599;47.852;12.070;2023-06-24T01:57:29;17.70;99.90
16966;DHT22;8599;47.852;12.070;2023-06-24T01:59:57;17.70;99.90
16966;DHT22;8599;47.852;12.070;2023-06-24T02:02:25;17.70;99.90
16966;DHT22;8599;47.852;12.070;2023-06-24T02:04:54;17.70;99.90
16966;DHT22;8599;47.852;12.070;2023-06-24T02:07:22;17.70;99.90
16966;DHT22;8599;47.852;12.070;2023-06-24T02:09:51;17.70;99.90
16966;DHT22;8599;47.852;12.070;2023-06-24T02:12:19;17.60;99.90
16966;DHT22;8599;47.852;12.070;2023-06-24T02:14:47;17.70;99.90
16966;DHT22;8599;47.852;12.070;2023-06-24T02:17:15;17.70;99.90
16966;DHT22;8599;47.852;12.070;2023-06-24T02:19:43;17.70;99.90
16966;DHT22;8599;47.852;12.070;2023-06-24T02:22:12;17.80;99.90
16966;DHT22;8599;47.852;12.070;2023-06-24T02:24:41;17.70;99.90
16966;DHT22;8599;47.852;12.070;2023-06-24T02:27:08;17.60;99.90
16966;DHT22;8599;47.852;12.070;2023-06-24T02:29:37;17.70;99.90
16966;DHT22;8599;47.852;12.070;2023-06-24T02:32:05;17.60;99.90
16966;DHT22;8599;47.852;12.070;2023-06-24T02:34:32;17.60;99.90
16966;DHT22;8599;47.852;12.070;2023-06-24T02:36:59;17.50;99.90
16966;DHT22;8599;47.852;12.070;2023-06-24T02:39:27;17.60;99.90
16966;DHT22;8599;47.852;12.070;2023-06-24T02:41:54;17.60;99.90
16966;DHT22;8599;47.852;12.070;2023-06-24T02:44:21;17.60;99.90
16966;DHT22;8599;47.852;12.070;2023-06-24T02:46:48;17.50;99.90
16966;DHT22;8599;47.852;12.070;2023-06-24T02:49:16;17.60;99.90
16966;DHT22;8599;47.852;12.070;2023-06-24T02:51:44;17.60;99.90
16966;DHT22;8599;47.852;12.070;2023-06-24T02:54:11;17.60;99.90
16966;DHT22;8599;47.852;12.070;2023-06-24T02:56:41;17.50;99.90
16966;DHT22;8599;47.852;12.070;2023-06-24T02:59:09;17.50;99.90
16966;DHT22;8599;47.852;12.070;2023-06-24T03:01:37;17.50;99.90
16966;DHT22;8599;47.852;12.070;2023-06-24T03:04:05;17.60;99.90
16966;DHT22;8599;47.852;12.070;2023-06-24T03:06:33;17.60;99.90
16966;DHT22;8599;47.852;12.070;2023-06-24T03:09:02;17.70;99.90
16966;DHT22;8599;47.852;12.070;2023-06-24T03:11:29;17.70;99.90
16966;DHT22;8599;47.852;12.070;2023-06-24T03:13:57;17.80;99.90
16966;DHT22;8599;47.852;12.070;2023-06-24T03:16:24;17.70;99.90
16966;DHT22;8599;47.852;12.070;2023-06-24T03:18:51;17.80;99.90
16966;DHT22;8599;47.852;12.070;2023-06-24T03:21:17;17.70;99.90
16966;DHT22;8599;47.852;12.070;2023-06-24T03:23:44;17.70;99.90
16966;DHT22;8599;47.852;12.070;2023-06-24T03:26:11;17.70;99.90
16966;DHT22;8599;47.852;12.070;2023-06-24T03:28:38;17.70;99.90
16966;DHT22;8599;47.852;12.070;2023-06-24T03:31:06;17.60;99.90
16966;DHT22;8599;47.852;12.070;2023-06-24T03:33:33;17.70;99.90
16966;DHT22;8599;47.852;12.070;2023-06-24T03:35:59;17.70;99.90
16966;DHT22;8599;47.852;12.070;2023-06-24T03:38:26;17.70;99.90
16966;DHT22;8599;47.852;12.070;2023-06-24T03:40:53;17.60;99.90
16966;DHT22;8599;47.852;12.070;2023-06-24T03:43:20;17.60;99.90
16966;DHT22;8599;47.852;12.070;2023-06-24T03:45:47;17.60;99.90
16966;DHT22;8599;47.852;12.070;2023-06-24T03:48:15;17.50;99.90
16966;DHT22;8599;47.852;12.070;2023-06-24T03:50:42;17.40;99.90
16966;DHT22;8599;47.852;12.070;2023-06-24T03:53:09;17.40;99.90
16966;DHT22;8599;47.852;12.070;2023-06-24T03:55:36;17.50;99.90
16966;DHT22;8599;47.852;12.070;2023-06-24T03:58:02;17.40;99.90
16966;DHT22;8599;47.852;12.070;2023-06-24T04:00:29;17.30;99.90
16966;DHT22;8599;47.852;12.070;2023-06-24T04:02:56;17.30;99.90
16966;DHT22;8599;47.852;12.070;2023-06-24T04:05:28;17.30;99.90
16966;DHT22;8599;47.852;12.070;2023-06-24T04:07:55;17.40;99.90
16966;DHT22;8599;47.852;12.070;2023-06-24T04:10:22;17.50;99.90
16966;DHT22;8599;47.852;12.070;2023-06-24T04:12:49;17.50;99.90
16966;DHT22;8599;47.852;12.070;2023-06-24T04:15:15;17.60;99.90
16966;DHT22;8599;47.852;12.070;2023-06-24T04:17:42;17.60;99.90
16966;DHT22;8599;47.852;12.070;2023-06-24T04:20:10;17.50;99.90
16966;DHT22;8599;47.852;12.070;2023-06-24T04:22:41;17.60;99.90
16966;DHT22;8599;47.852;12.070;2023-06-24T04:25:09;17.60;99.90
16966;DHT22;8599;47.852;12.070;2023-06-24T04:27:36;17.60;99.90
16966;DHT22;8599;47.852;12.070;2023-06-24T04:30:03;17.70;99.90
16966;DHT22;8599;47.852;12.070;2023-06-24T04:32:30;17.70;99.90
16966;DHT22;8599;47.852;12.070;2023-06-24T04:34:58;17.70;99.90
16966;DHT22;8599;47.852;12.070;2023-06-24T04:37:24;17.70;99.90
16966;DHT22;8599;47.852;12.070;2023-06-24T04:39:52;17.70;99.90
16966;DHT22;8599;47.852;12.070;2023-06-24T04:42:19;17.70;99.90
16966;DHT22;8599;47.852;12.070;2023-06-24T04:44:48;17.70;99.90
16966;DHT22;8599;47.852;12.070;2023-06-24T04:47:16;17.70;99.90
16966;DHT22;8599;47.852;12.070;2023-06-24T04:49:43;17.70;99.90
16966;DHT22;8599;47.852;12.070;2023-06-24T04:52:11;17.80;99.90
16966;DHT22;8599;47.852;12.070;2023-06-24T04:54:37;17.80;99.90
16966;DHT22;8599;47.852;12.070;2023-06-24T04:57:09;17.80;99.90
16966;DHT22;8599;47.852;12.070;2023-06-24T04:59:36;17.70;99.90
16966;DHT22;8599;47.852;12.070;2023-06-24T05:02:03;17.70;99.90
16966;DHT22;8599;47.852;12.070;2023-06-24T05:04:30;17.70;99.90
16966;DHT22;8599;47.852;12.070;2023-06-24T05:06:57;17.70;99.90
16966;DHT22;8599;47.852;12.070;2023-06-24T05:09:24;17.70;99.90
16966;DHT22;8599;47.852;12.070;2023-06-24T05:11:50;17.60;99.90
16966;DHT22;8599;47.852;12.070;2023-06-24T05:14:19;17.50;99.90
16966;DHT22;8599;47.852;12.070;2023-06-24T05:16:45;17.60;99.90
16966;DHT22;8599;47.852;12.070;2023-06-24T05:19:12;17.80;99.90
16966;DHT22;8599;47.852;12.070;2023-06-24T05:21:39;17.70;99.90
16966;DHT22;8599;47.852;12.070;2023-06-24T05:24:06;17.60;99.90
16966;DHT22;8599;47.852;12.070;2023-06-24T05:26:33;17.70;99.90
16966;DHT22;8599;47.852;12.070;2023-06-24T05:29:00;17.80;99.90
16966;DHT22;8599;47.852;12.070;2023-06-24T05:31:28;17.90;99.90
16966;DHT22;8599;47.852;12.070;2023-06-24T05:33:55;18.00;99.90
16966;DHT22;8599;47.852;12.070;2023-06-24T05:36:22;18.00;99.90
16966;DHT22;8599;47.852;12.070;2023-06-24T05:38:48;18.00;99.90
16966;DHT22;8599;47.852;12.070;2023-06-24T05:41:15;18.10;99.90
16966;DHT22;8599;47.852;12.070;2023-06-24T05:43:43;18.00;99.90
16966;DHT22;8599;47.852;12.070;2023-06-24T05:46:09;18.00;99.90
16966;DHT22;8599;47.852;12.070;2023-06-24T05:48:39;18.00;99.90
16966;DHT22;8599;47.852;12.070;2023-06-24T05:51:07;18.10;99.90
16966;DHT22;8599;47.852;12.070;2023-06-24T05:53:34;18.10;99.90
16966;DHT22;8599;47.852;12.070;2023-06-24T05:56:01;18.10;99.90
16966;DHT22;8599;47.852;12.070;2023-06-24T05:58:28;18.10;99.90
16966;DHT22;8599;47.852;12.070;2023-06-24T06:00:55;18.10;99.90
16966;DHT22;8599;47.852;12.070;2023-06-24T06:03:22;18.20;99.90
16966;DHT22;8599;47.852;12.070;2023-06-24T06:05:50;18.30;99.90
16966;DHT22;8599;47.852;12.070;2023-06-24T06:08:17;18.40;99.90
16966;DHT22;8599;47.852;12.070;2023-06-24T06:10:43;18.40;99.90
16966;DHT22;8599;47.852;12.070;2023-06-24T06:13:10;18.60;99.90
16966;DHT22;8599;47.852;12.070;2023-06-24T06:15:37;18.60;99.90
16966;DHT22;8599;47.852;12.070;2023-06-24T06:18:04;18.80;99.90
16966;DHT22;8599;47.852;12.070;2023-06-24T06:20:31;18.70;99.90
16966;DHT22;8599;47.852;12.070;2023-06-24T06:22:59;18.70;99.90
16966;DHT22;8599;47.852;12.070;2023-06-24T06:25:26;18.80;99.90
16966;DHT22;8599;47.852;12.070;2023-06-24T06:27:52;18.90;99.90
16966;DHT22;8599;47.852;12.070;2023-06-24T06:30:19;18.90;99.90
16966;DHT22;8599;47.852;12.070;2023-06-24T06:32:46;18.90;99.90
16966;DHT22;8599;47.852;12.070;2023-06-24T06:35:13;19.00;99.90
16966;DHT22;8599;47.852;12.070;2023-06-24T06:37:40;19.00;99.90
16966;DHT22;8599;47.852;12.070;2023-06-24T06:40:09;19.10;99.90
16966;DHT22;8599;47.852;12.070;2023-06-24T06:42:36;19.20;99.90
16966;DHT22;8599;47.852;12.070;2023-06-24T06:45:03;19.20;99.90
16966;DHT22;8599;47.852;12.070;2023-06-24T06:47:30;19.20;99.90
16966;DHT22;8599;47.852;12.070;2023-06-24T06:49:57;19.30;99.90
16966;DHT22;8599;47.852;12.070;2023-06-24T06:52:24;19.40;99.90
16966;DHT22;8599;47.852;12.070;2023-06-24T06:54:50;19.40;99.90
16966;DHT22;8599;47.852;12.070;2023-06-24T06:57:19;19.40;99.90
16966;DHT22;8599;47.852;12.070;2023-06-24T06:59:45;19.50;99.90
16966;DHT22;8599;47.852;12.070;2023-06-24T07:02:12;19.40;99.90
16966;DHT22;8599;47.852;12.070;2023-06-24T07:04:39;19.30;99.90
16966;DHT22;8599;47.852;12.070;2023-06-24T07:07:06;19.20;99.90
16966;DHT22;8599;47.852;12.070;2023-06-24T07:09:33;19.10;99.90
16966;DHT22;8599;47.852;12.070;2023-06-24T07:11:59;19.20;99.90
16966;DHT22;8599;47.852;12.070;2023-06-24T07:14:27;19.30;99.90
16966;DHT22;8599;47.852;12.070;2023-06-24T07:16:54;19.10;99.90
16966;DHT22;8599;47.852;12.070;2023-06-24T07:19:21;19.20;99.90
16966;DHT22;8599;47.852;12.070;2023-06-24T07:21:48;19.30;99.90
16966;DHT22;8599;47.852;12.070;2023-06-24T07:24:14;19.40;99.90
16966;DHT22;8599;47.852;12.070;2023-06-24T07:26:41;19.40;99.90
16966;DHT22;8599;47.852;12.070;2023-06-24T07:29:08;19.50;99.90
16966;DHT22;8599;47.852;12.070;2023-06-24T07:31:37;19.60;99.90
16966;DHT22;8599;47.852;12.070;2023-06-24T07:34:03;19.70;99.90
16966;DHT22;8599;47.852;12.070;2023-06-24T07:36:30;19.70;99.90
16966;DHT22;8599;47.852;12.070;2023-06-24T07:38:57;19.80;99.90
16966;DHT22;8599;47.852;12.070;2023-06-24T07:41:24;19.90;99.90
16966;DHT22;8599;47.852;12.070;2023-06-24T07:43:51;19.90;99.90
16966;DHT22;8599;47.852;12.070;2023-06-24T07:46:17;20.00;99.90
16966;DHT22;8599;47.852;12.070;2023-06-24T07:48:46;20.00;99.90
16966;DHT22;8599;47.852;12.070;2023-06-24T07:51:12;20.00;99.90
16966;DHT22;8599;47.852;12.070;2023-06-24T07:53:39;20.00;99.90
16966;DHT22;8599;47.852;12.070;2023-06-24T07:56:06;20.00;99.90
16966;DHT22;8599;47.852;12.070;2023-06-24T07:58:33;20.10;99.90
16966;DHT22;8599;47.852;12.070;2023-06-24T08:01:00;20.10;99.90
16966;DHT22;8599;47.852;12.070;2023-06-24T08:03:27;20.00;99.90
16966;DHT22;8599;47.852;12.070;2023-06-24T08:05:55;20.30;99.90
16966;DHT22;8599;47.852;12.070;2023-06-24T08:08:22;20.50;99.90
16966;DHT22;8599;47.852;12.070;2023-06-24T08:10:49;20.70;99.90
16966;DHT22;8599;47.852;12.070;2023-06-24T08:13:16;20.70;99.90
16966;DHT22;8599;47.852;12.070;2023-06-24T08:15:43;21.00;99.90
16966;DHT22;8599;47.852;12.070;2023-06-24T08:18:10;20.90;99.90
16966;DHT22;8599;47.852;12.070;2023-06-24T08:20:37;20.90;99.90
16966;DHT22;8599;47.852;12.070;2023-06-24T08:23:05;20.90;99.90
16966;DHT22;8599;47.852;12.070;2023-06-24T08:25:32;20.90;99.90
16966;DHT22;8599;47.852;12.070;2023-06-24T08:37:46;21.20;99.90
16966;DHT22;8599;47.852;12.070;2023-06-24T08:40:14;21.00;99.90
16966;DHT22;8599;47.852;12.070;2023-06-24T08:42:43;21.00;99.90
16966;DHT22;8599;47.852;12.070;2023-06-24T08:45:10;21.00;99.90
16966;DHT22;8599;47.852;12.070;2023-06-24T08:51:01;20.90;99.90
16966;DHT22;8599;47.852;12.070;2023-06-24T08:53:28;21.00;99.90
16966;DHT22;8599;47.852;12.070;2023-06-24T08:55:57;21.00;99.90
16966;DHT22;8599;47.852;12.070;2023-06-24T08:58:25;21.00;99.90
16966;DHT22;8599;47.852;12.070;2023-06-24T09:00:52;21.10;99.90
16966;DHT22;8599;47.852;12.070;2023-06-24T09:03:19;21.30;99.90
16966;DHT22;8599;47.852;12.070;2023-06-24T09:05:46;21.30;99.90
16966;DHT22;8599;47.852;12.070;2023-06-24T09:08:14;21.40;99.90
16966;DHT22;8599;47.852;12.070;2023-06-24T09:10:41;21.50;99.60
16966;DHT22;8599;47.852;12.070;2023-06-24T09:13:09;21.50;99.90
16966;DHT22;8599;47.852;12.070;2023-06-24T09:15:37;21.40;99.90
16966;DHT22;8599;47.852;12.070;2023-06-24T09:18:05;21.50;99.90
16966;DHT22;8599;47.852;12.070;2023-06-24T09:20:32;21.60;98.90
16966;DHT22;8599;47.852;12.070;2023-06-24T09:23:05;21.60;98.80
16966;DHT22;8599;47.852;12.070;2023-06-24T09:25:32;21.90;98.00
16966;DHT22;8599;47.852;12.070;2023-06-24T09:27:59;21.90;98.70
16966;DHT22;8599;47.852;12.070;2023-06-24T09:30:28;22.10;98.80
16966;DHT22;8599;47.852;12.070;2023-06-24T09:32:55;22.20;98.30
16966;DHT22;8599;47.852;12.070;2023-06-24T09:35:23;22.30;98.60
16966;DHT22;8599;47.852;12.070;2023-06-24T09:37:51;22.20;97.10
16966;DHT22;8599;47.852;12.070;2023-06-24T09:40:18;22.10;97.80
16966;DHT22;8599;47.852;12.070;2023-06-24T09:42:52;21.90;97.60
16966;DHT22;8599;47.852;12.070;2023-06-24T09:45:21;21.80;98.40
16966;DHT22;8599;47.852;12.070;2023-06-24T09:47:49;21.70;98.40
16966;DHT22;8599;47.852;12.070;2023-06-24T09:50:16;21.90;98.00
16966;DHT22;8599;47.852;12.070;2023-06-24T09:52:44;21.90;98.60
16966;DHT22;8599;47.852;12.070;2023-06-24T09:55:13;22.00;98.60
16966;DHT22;8599;47.852;12.070;2023-06-24T09:57:41;21.90;98.60
16966;DHT22;8599;47.852;12.070;2023-06-24T10:00:10;21.80;99.30
16966;DHT22;8599;47.852;12.070;2023-06-24T10:02:38;21.80;98.50
16966;DHT22;8599;47.852;12.070;2023-06-24T10:05:06;21.80;98.70
16966;DHT22;8599;47.852;12.070;2023-06-24T10:07:34;21.70;98.60
16966;DHT22;8599;47.852;12.070;2023-06-24T10:10:03;21.70;98.80
16966;DHT22;8599;47.852;12.070;2023-06-24T10:12:30;21.90;99.00
16966;DHT22;8599;47.852;12.070;2023-06-24T10:14:57;22.00;99.00
16966;DHT22;8599;47.852;12.070;2023-06-24T10:17:24;22.10;98.80
16966;DHT22;8599;47.852;12.070;2023-06-24T10:19:52;22.00;97.80
16966;DHT22;8599;47.852;12.070;2023-06-24T10:22:21;22.00;97.90
16966;DHT22;8599;47.852;12.070;2023-06-24T10:24:49;22.20;98.80
16966;DHT22;8599;47.852;12.070;2023-06-24T10:27:19;22.40;98.60
16966;DHT22;8599;47.852;12.070;2023-06-24T10:29:49;22.40;97.30
16966;DHT22;8599;47.852;12.070;2023-06-24T10:32:16;22.50;98.20
16966;DHT22;8599;47.852;12.070;2023-06-24T10:34:44;22.60;97.60
16966;DHT22;8599;47.852;12.070;2023-06-24T10:37:13;22.50;97.60
16966;DHT22;8599;47.852;12.070;2023-06-24T10:39:46;22.40;97.20
16966;DHT22;8599;47.852;12.070;2023-06-24T10:42:27;22.50;97.90
16966;DHT22;8599;47.852;12.070;2023-06-24T10:44:55;22.70;97.60
16966;DHT22;8599;47.852;12.070;2023-06-24T10:47:22;22.80;97.40
16966;DHT22;8599;47.852;12.070;2023-06-24T10:49:49;22.70;96.70
16966;DHT22;8599;47.852;12.070;2023-06-24T10:52:18;22.70;96.90
16966;DHT22;8599;47.852;12.070;2023-06-24T10:54:47;22.90;96.40
16966;DHT22;8599;47.852;12.070;2023-06-24T10:57:15;23.10;97.20
16966;DHT22;8599;47.852;12.070;2023-06-24T10:59:42;23.10;96.30
16966;DHT22;8599;47.852;12.070;2023-06-24T11:02:09;23.10;96.70
16966;DHT22;8599;47.852;12.070;2023-06-24T11:04:43;23.10;97.80
16966;DHT22;8599;47.852;12.070;2023-06-24T11:07:10;23.00;96.20
16966;DHT22;8599;47.852;12.070;2023-06-24T11:09:37;23.10;96.90
16966;DHT22;8599;47.852;12.070;2023-06-24T11:12:08;23.10;97.50
16966;DHT22;8599;47.852;12.070;2023-06-24T11:14:36;23.10;96.20
16966;DHT22;8599;47.852;12.070;2023-06-24T11:17:03;23.20;94.70
16966;DHT22;8599;47.852;12.070;2023-06-24T11:19:30;23.30;94.90
16966;DHT22;8599;47.852;12.070;2023-06-24T11:21:59;23.20;95.40
16966;DHT22;8599;47.852;12.070;2023-06-24T11:24:27;23.10;96.00
16966;DHT22;8599;47.852;12.070;2023-06-24T11:26:54;22.80;96.90
16966;DHT22;8599;47.852;12.070;2023-06-24T11:29:22;22.80;96.70
16966;DHT22;8599;47.852;12.070;2023-06-24T11:31:49;22.80;96.10
16966;DHT22;8599;47.852;12.070;2023-06-24T11:34:16;22.70;95.80
16966;DHT22;8599;47.852;12.070;2023-06-24T11:36:43;22.70;96.30
16966;DHT22;8599;47.852;12.070;2023-06-24T11:39:20;22.90;95.90
16966;DHT22;8599;47.852;12.070;2023-06-24T11:41:47;23.00;95.30
16966;DHT22;8599;47.852;12.070;2023-06-24T11:44:14;23.20;95.10
16966;DHT22;8599;47.852;12.070;2023-06-24T11:46:42;23.40;95.70
16966;DHT22;8599;47.852;12.070;2023-06-24T11:49:09;23.40;96.50
16966;DHT22;8599;47.852;12.070;2023-06-24T11:51:36;23.40;96.50
16966;DHT22;8599;47.852;12.070;2023-06-24T11:54:04;23.60;95.80
16966;DHT22;8599;47.852;12.070;2023-06-24T11:56:34;23.70;95.60
16966;DHT22;8599;47.852;12.070;2023-06-24T11:59:04;23.50;95.60
16966;DHT22;8599;47.852;12.070;2023-06-24T12:01:31;23.60;96.40
16966;DHT22;8599;47.852;12.070;2023-06-24T12:04:01;24.10;95.00
16966;DHT22;8599;47.852;12.070;2023-06-24T12:06:28;24.30;93.30
16966;DHT22;8599;47.852;12.070;2023-06-24T12:08:54;24.30;93.60
16966;DHT22;8599;47.852;12.070;2023-06-24T12:11:21;24.30;94.00
16966;DHT22;8599;47.852;12.070;2023-06-24T12:13:49;24.10;93.00
16966;DHT22;8599;47.852;12.070;2023-06-24T12:16:15;24.20;93.70
16966;DHT22;8599;47.852;12.070;2023-06-24T12:18:42;24.10;93.20
16966;DHT22;8599;47.852;12.070;2023-06-24T12:21:11;24.10;94.60
16966;DHT22;8599;47.852;12.070;2023-06-24T12:23:38;24.20;93.70
16966;DHT22;8599;47.852;12.070;2023-06-24T12:26:05;24.20;94.20
16966;DHT22;8599;47.852;12.070;2023-06-24T12:28:32;24.30;95.00
16966;DHT22;8599;47.852;12.070;2023-06-24T12:30:58;24.60;93.70
16966;DHT22;8599;47.852;12.070;2023-06-24T12:33:25;24.50;93.50
16966;DHT22;8599;47.852;12.070;2023-06-24T12:35:52;24.70;93.60
16966;DHT22;8599;47.852;12.070;2023-06-24T12:38:20;24.40;92.40
16966;DHT22;8599;47.852;12.070;2023-06-24T12:40:47;23.70;94.00
16966;DHT22;8599;47.852;12.070;2023-06-24T12:43:14;23.60;93.80
16966;DHT22;8599;47.852;12.070;2023-06-24T12:45:41;23.70;94.10
16966;DHT22;8599;47.852;12.070;2023-06-24T12:48:09;23.90;94.20
16966;DHT22;8599;47.852;12.070;2023-06-24T12:50:36;24.20;94.60
16966;DHT22;8599;47.852;12.070;2023-06-24T12:53:03;24.70;93.50
16966;DHT22;8599;47.852;12.070;2023-06-24T12:55:31;24.60;92.50
16966;DHT22;8599;47.852;12.070;2023-06-24T12:57:58;25.10;93.00
16966;DHT22;8599;47.852;12.070;2023-06-24T13:00:25;25.70;93.20
16966;DHT22;8599;47.852;12.070;2023-06-24T13:02:51;25.80;91.80
16966;DHT22;8599;47.852;12.070;2023-06-24T13:05:19;26.10;92.60
16966;DHT22;8599;47.852;12.070;2023-06-24T13:07:45;26.40;91.20
16966;DHT22;8599;47.852;12.070;2023-06-24T13:10:12;26.80;91.80
16966;DHT22;8599;47.852;12.070;2023-06-24T13:12:40;26.10;90.40
16966;DHT22;8599;47.852;12.070;2023-06-24T13:15:08;26.50;90.90
16966;DHT22;8599;47.852;12.070;2023-06-24T13:17:36;26.90;90.10
16966;DHT22;8599;47.852;12.070;2023-06-24T13:20:04;26.10;88.80
16966;DHT22;8599;47.852;12.070;2023-06-24T13:22:31;25.70;90.90
16966;DHT22;8599;47.852;12.070;2023-06-24T13:24:57;25.30;91.10
16966;DHT22;8599;47.852;12.070;2023-06-24T13:27:24;24.40;91.20
16966;DHT22;8599;47.852;12.070;2023-06-24T13:29:52;24.30;92.00
16966;DHT22;8599;47.852;12.070;2023-06-24T13:32:19;24.30;91.90
16966;DHT22;8599;47.852;12.070;2023-06-24T13:34:46;24.10;91.50
16966;DHT22;8599;47.852;12.070;2023-06-24T13:37:14;24.10;92.00
16966;DHT22;8599;47.852;12.070;2023-06-24T13:39:40;24.60;91.80
16966;DHT22;8599;47.852;12.070;2023-06-24T13:42:08;25.30;90.50
16966;DHT22;8599;47.852;12.070;2023-06-24T13:44:34;25.80;89.70
16966;DHT22;8599;47.852;12.070;2023-06-24T13:47:03;26.10;87.30
16966;DHT22;8599;47.852;12.070;2023-06-24T13:49:30;26.70;88.00
16966;DHT22;8599;47.852;12.070;2023-06-24T13:51:57;27.00;85.40
16966;DHT22;8599;47.852;12.070;2023-06-24T13:54:24;27.20;86.00
16966;DHT22;8599;47.852;12.070;2023-06-24T13:56:51;27.00;86.20
16966;DHT22;8599;47.852;12.070;2023-06-24T13:59:17;26.50;86.20
16966;DHT22;8599;47.852;12.070;2023-06-24T14:01:44;26.10;86.90
16966;DHT22;8599;47.852;12.070;2023-06-24T14:04:12;26.70;85.80
16966;DHT22;8599;47.852;12.070;2023-06-24T14:06:39;27.40;85.80
16966;DHT22;8599;47.852;12.070;2023-06-24T14:09:06;28.00;83.60
16966;DHT22;8599;47.852;12.070;2023-06-24T14:11:33;28.20;81.70
16966;DHT22;8599;47.852;12.070;2023-06-24T14:14:00;28.00;81.70
16966;DHT22;8599;47.852;12.070;2023-06-24T14:16:27;27.70;83.80
16966;DHT22;8599;47.852;12.070;2023-06-24T14:18:53;27.20;84.10
16966;DHT22;8599;47.852;12.070;2023-06-24T14:21:22;27.10;86.20
16966;DHT22;8599;47.852;12.070;2023-06-24T14:23:48;27.10;86.40
16966;DHT22;8599;47.852;12.070;2023-06-24T14:26:15;27.50;84.00
16966;DHT22;8599;47.852;12.070;2023-06-24T14:28:42;28.00;83.60
16966;DHT22;8599;47.852;12.070;2023-06-24T14:31:09;28.30;83.00
16966;DHT22;8599;47.852;12.070;2023-06-24T14:33:36;29.00;81.40
16966;DHT22;8599;47.852;12.070;2023-06-24T14:36:03;28.80;77.60
16966;DHT22;8599;47.852;12.070;2023-06-24T14:38:31;28.70;79.50
16966;DHT22;8599;47.852;12.070;2023-06-24T14:40:58;28.60;77.60
16966;DHT22;8599;47.852;12.070;2023-06-24T14:43:25;28.20;78.50
16966;DHT22;8599;47.852;12.070;2023-06-24T14:45:52;28.10;81.40
16966;DHT22;8599;47.852;12.070;2023-06-24T14:48:19;27.90;81.60
16966;DHT22;8599;47.852;12.070;2023-06-24T14:50:46;28.10;79.20
16966;DHT22;8599;47.852;12.070;2023-06-24T14:53:13;27.60;79.90
16966;DHT22;8599;47.852;12.070;2023-06-24T14:55:41;26.90;81.30
16966;DHT22;8599;47.852;12.070;2023-06-24T14:58:08;26.30;83.60
16966;DHT22;8599;47.852;12.070;2023-06-24T15:00:34;25.70;83.40
16966;DHT22;8599;47.852;12.070;2023-06-24T15:03:01;25.80;84.50
16966;DHT22;8599;47.852;12.070;2023-06-24T15:05:28;26.60;85.60
16966;DHT22;8599;47.852;12.070;2023-06-24T15:07:55;27.40;81.10
16966;DHT22;8599;47.852;12.070;2023-06-24T15:10:22;27.80;79.00
16966;DHT22;8599;47.852;12.070;2023-06-24T15:12:50;27.10;78.70
16966;DHT22;8599;47.852;12.070;2023-06-24T15:15:17;27.20;79.20
16966;DHT22;8599;47.852;12.070;2023-06-24T15:17:44;27.50;79.80
16966;DHT22;8599;47.852;12.070;2023-06-24T15:20:11;27.90;80.30
16966;DHT22;8599;47.852;12.070;2023-06-24T15:22:38;27.60;79.70
16966;DHT22;8599;47.852;12.070;2023-06-24T15:25:06;27.10;79.80
16966;DHT22;8599;47.852;12.070;2023-06-24T15:27:33;27.00;78.90
16966;DHT22;8599;47.852;12.070;2023-06-24T15:30:01;26.80;82.70
16966;DHT22;8599;47.852;12.070;2023-06-24T15:32:29;26.40;79.10
16966;DHT22;8599;47.852;12.070;2023-06-24T15:34:55;26.20;81.50
16966;DHT22;8599;47.852;12.070;2023-06-24T15:37:22;26.30;82.30
16966;DHT22;8599;47.852;12.070;2023-06-24T15:39:50;26.00;79.90
16966;DHT22;8599;47.852;12.070;2023-06-24T15:42:16;25.60;81.30
16966;DHT22;8599;47.852;12.070;2023-06-24T15:44:43;25.60;82.20
16966;DHT22;8599;47.852;12.070;2023-06-24T15:47:11;25.50;81.40